sensor_id;sensor_type;location;lat;lon;timestamp;P1;durP1;ratioP1;P2;durP2;ratioP2
24090;SDS011;12272;52.426;17.100;2022-08-18T00:04:50;8.85;;;7.97;;
24090;SDS011;12272;52.426;17.100;2022-08-18T00:09:58;7.93;;;7.10;;
24090;SDS011;12272;52.426;17.100;2022-08-18T00:15:02;8.23;;;7.53;;
24090;SDS011;12272;52.426;17.100;2022-08-18T00:20:15;8.10;;;7.40;;
24090;SDS011;12272;52.426;17.100;2022-08-18T00:25:19;7.97;;;7.18;;
24090;SDS011;12272;52.426;17.100;2022-08-18T00:30:23;8.98;;;7.95;;
24090;SDS011;12272;52.426;17.100;2022-08-18T00:35:27;8.10;;;7.32;;
24090;SDS011;12272;52.426;17.100;2022-08-18T00:40:36;8.20;;;7.40;;
24090;SDS011;12272;52.426;17.100;2022-08-18T00:45:44;8.13;;;7.40;;
24090;SDS011;12272;52.426;17.100;2022-08-18T00:55:52;8.45;;;7.65;;
24090;SDS011;12272;52.426;17.100;2022-08-18T01:00:58;8.30;;;7.20;;
24090;SDS011;12272;52.426;17.100;2022-08-18T01:06:15;8.55;;;7.75;;
24090;SDS011;12272;52.426;17.100;2022-08-18T01:11:24;8.95;;;8.05;;
24090;SDS011;12272;52.426;17.100;2022-08-18T01:16:26;8.20;;;7.40;;
24090;SDS011;12272;52.426;17.100;2022-08-18T01:22:00;9.70;;;8.02;;
24090;SDS011;12272;52.426;17.100;2022-08-18T01:27:09;9.00;;;7.65;;
24090;SDS011;12272;52.426;17.100;2022-08-18T01:32:15;8.70;;;7.85;;
24090;SDS011;12272;52.426;17.100;2022-08-18T01:37:23;7.53;;;6.90;;
24090;SDS011;12272;52.426;17.100;2022-08-18T01:42:26;8.38;;;7.68;;
24090;SDS011;12272;52.426;17.100;2022-08-18T01:47:28;9.93;;;9.02;;
24090;SDS011;12272;52.426;17.100;2022-08-18T01:52:53;8.95;;;8.05;;
24090;SDS011;12272;52.426;17.100;2022-08-18T01:57:55;8.55;;;7.63;;
24090;SDS011;12272;52.426;17.100;2022-08-18T02:02:58;8.77;;;7.97;;
24090;SDS011;12272;52.426;17.100;2022-08-18T02:08:03;8.68;;;7.88;;
24090;SDS011;12272;52.426;17.100;2022-08-18T02:13:07;8.95;;;8.05;;
24090;SDS011;12272;52.426;17.100;2022-08-18T02:18:14;8.40;;;7.70;;
24090;SDS011;12272;52.426;17.100;2022-08-18T02:23:41;9.07;;;8.18;;
24090;SDS011;12272;52.426;17.100;2022-08-18T02:28:54;10.20;;;9.15;;
24090;SDS011;12272;52.426;17.100;2022-08-18T02:33:57;9.32;;;8.38;;
24090;SDS011;12272;52.426;17.100;2022-08-18T02:39:00;9.45;;;8.55;;
24090;SDS011;12272;52.426;17.100;2022-08-18T02:44:04;9.18;;;8.27;;
24090;SDS011;12272;52.426;17.100;2022-08-18T02:49:08;10.13;;;9.13;;
24090;SDS011;12272;52.426;17.100;2022-08-18T02:54:10;9.60;;;8.63;;
24090;SDS011;12272;52.426;17.100;2022-08-18T02:59:15;11.32;;;8.68;;
24090;SDS011;12272;52.426;17.100;2022-08-18T03:04:22;9.60;;;8.70;;
24090;SDS011;12272;52.426;17.100;2022-08-18T03:09:31;9.23;;;8.32;;
24090;SDS011;12272;52.426;17.100;2022-08-18T03:14:35;9.30;;;8.50;;
24090;SDS011;12272;52.426;17.100;2022-08-18T03:19:40;10.85;;;9.85;;
24090;SDS011;12272;52.426;17.100;2022-08-18T03:24:48;10.43;;;9.43;;
24090;SDS011;12272;52.426;17.100;2022-08-18T03:29:50;9.15;;;8.32;;
24090;SDS011;12272;52.426;17.100;2022-08-18T03:34:53;10.52;;;9.35;;
24090;SDS011;12272;52.426;17.100;2022-08-18T03:39:55;9.68;;;8.70;;
24090;SDS011;12272;52.426;17.100;2022-08-18T03:44:58;9.55;;;8.65;;
24090;SDS011;12272;52.426;17.100;2022-08-18T03:50:13;10.48;;;9.48;;
24090;SDS011;12272;52.426;17.100;2022-08-18T03:55:15;9.65;;;8.75;;
24090;SDS011;12272;52.426;17.100;2022-08-18T04:00:18;10.25;;;9.23;;
24090;SDS011;12272;52.426;17.100;2022-08-18T04:05:21;9.85;;;8.95;;
24090;SDS011;12272;52.426;17.100;2022-08-18T04:10:23;10.48;;;9.48;;
24090;SDS011;12272;52.426;17.100;2022-08-18T04:15:26;11.10;;;9.30;;
24090;SDS011;12272;52.426;17.100;2022-08-18T04:20:29;10.35;;;9.27;;
24090;SDS011;12272;52.426;17.100;2022-08-18T04:25:34;10.75;;;9.70;;
24090;SDS011;12272;52.426;17.100;2022-08-18T04:30:36;11.02;;;10.02;;
24090;SDS011;12272;52.426;17.100;2022-08-18T04:35:40;9.68;;;8.77;;
24090;SDS011;12272;52.426;17.100;2022-08-18T04:40:42;10.23;;;9.32;;
24090;SDS011;12272;52.426;17.100;2022-08-18T04:45:45;10.45;;;9.50;;
24090;SDS011;12272;52.426;17.100;2022-08-18T04:50:48;10.82;;;9.77;;
24090;SDS011;12272;52.426;17.100;2022-08-18T04:55:51;11.45;;;10.35;;
24090;SDS011;12272;52.426;17.100;2022-08-18T05:00:55;11.20;;;10.10;;
24090;SDS011;12272;52.426;17.100;2022-08-18T05:06:02;11.10;;;9.60;;
24090;SDS011;12272;52.426;17.100;2022-08-18T05:11:05;11.57;;;10.48;;
24090;SDS011;12272;52.426;17.100;2022-08-18T05:16:08;11.10;;;10.00;;
24090;SDS011;12272;52.426;17.100;2022-08-18T05:21:25;11.35;;;10.25;;
24090;SDS011;12272;52.426;17.100;2022-08-18T05:26:28;10.82;;;9.77;;
24090;SDS011;12272;52.426;17.100;2022-08-18T05:31:31;10.98;;;9.98;;
24090;SDS011;12272;52.426;17.100;2022-08-18T05:41:51;11.40;;;10.30;;
24090;SDS011;12272;52.426;17.100;2022-08-18T05:47:13;11.68;;;10.55;;
24090;SDS011;12272;52.426;17.100;2022-08-18T05:52:21;11.10;;;9.93;;
24090;SDS011;12272;52.426;17.100;2022-08-18T05:57:32;11.00;;;10.00;;
24090;SDS011;12272;52.426;17.100;2022-08-18T06:02:42;11.77;;;10.50;;
24090;SDS011;12272;52.426;17.100;2022-08-18T06:07:54;11.63;;;10.43;;
24090;SDS011;12272;52.426;17.100;2022-08-18T06:13:00;12.80;;;10.23;;
24090;SDS011;12272;52.426;17.100;2022-08-18T06:29:26;12.23;;;11.02;;
24090;SDS011;12272;52.426;17.100;2022-08-18T06:39:46;11.60;;;10.57;;
24090;SDS011;12272;52.426;17.100;2022-08-18T06:44:52;11.07;;;10.07;;
24090;SDS011;12272;52.426;17.100;2022-08-18T06:55:14;11.20;;;10.18;;
24090;SDS011;12272;52.426;17.100;2022-08-18T07:05:27;11.93;;;10.82;;
24090;SDS011;12272;52.426;17.100;2022-08-18T07:10:35;11.65;;;10.50;;
24090;SDS011;12272;52.426;17.100;2022-08-18T07:15:40;11.02;;;10.02;;
24090;SDS011;12272;52.426;17.100;2022-08-18T07:20:46;19.60;;;16.88;;
24090;SDS011;12272;52.426;17.100;2022-08-18T07:26:08;21.52;;;18.35;;
24090;SDS011;12272;52.426;17.100;2022-08-18T07:36:50;15.35;;;13.68;;
24090;SDS011;12272;52.426;17.100;2022-08-18T07:41:58;12.90;;;10.75;;
24090;SDS011;12272;52.426;17.100;2022-08-18T07:47:24;12.68;;;11.38;;
24090;SDS011;12272;52.426;17.100;2022-08-18T07:52:50;12.88;;;11.65;;
24090;SDS011;12272;52.426;17.100;2022-08-18T07:58:14;24.08;;;18.33;;
24090;SDS011;12272;52.426;17.100;2022-08-18T08:14:59;13.57;;;10.18;;
24090;SDS011;12272;52.426;17.100;2022-08-18T08:20:18;15.55;;;13.90;;
24090;SDS011;12272;52.426;17.100;2022-08-18T08:36:33;12.27;;;11.07;;
24090;SDS011;12272;52.426;17.100;2022-08-18T08:41:44;12.95;;;11.70;;
24090;SDS011;12272;52.426;17.100;2022-08-18T08:46:57;22.42;;;16.45;;
24090;SDS011;12272;52.426;17.100;2022-08-18T08:52:10;13.48;;;12.18;;
24090;SDS011;12272;52.426;17.100;2022-08-18T08:57:26;16.02;;;11.43;;
24090;SDS011;12272;52.426;17.100;2022-08-18T09:24:43;12.48;;;11.27;;
24090;SDS011;12272;52.426;17.100;2022-08-18T09:29:52;13.60;;;11.70;;
24090;SDS011;12272;52.426;17.100;2022-08-18T09:40:24;15.23;;;12.15;;
24090;SDS011;12272;52.426;17.100;2022-08-18T09:46:04;12.45;;;11.25;;
24090;SDS011;12272;52.426;17.100;2022-08-18T10:01:56;13.15;;;11.85;;
24090;SDS011;12272;52.426;17.100;2022-08-18T10:07:13;14.43;;;12.02;;
24090;SDS011;12272;52.426;17.100;2022-08-18T10:12:28;12.95;;;11.75;;
24090;SDS011;12272;52.426;17.100;2022-08-18T10:17:47;22.77;;;12.40;;
24090;SDS011;12272;52.426;17.100;2022-08-18T10:22:51;12.48;;;11.02;;
24090;SDS011;12272;52.426;17.100;2022-08-18T10:27:55;13.05;;;11.27;;
24090;SDS011;12272;52.426;17.100;2022-08-18T10:33:01;12.85;;;11.65;;
24090;SDS011;12272;52.426;17.100;2022-08-18T10:38:22;18.33;;;12.68;;
24090;SDS011;12272;52.426;17.100;2022-08-18T10:43:36;12.75;;;11.50;;
24090;SDS011;12272;52.426;17.100;2022-08-18T10:49:17;18.00;;;13.43;;
24090;SDS011;12272;52.426;17.100;2022-08-18T11:05:11;16.02;;;14.45;;
24090;SDS011;12272;52.426;17.100;2022-08-18T11:10:23;16.25;;;14.00;;
24090;SDS011;12272;52.426;17.100;2022-08-18T11:26:33;24.75;;;12.63;;
24090;SDS011;12272;52.426;17.100;2022-08-18T11:31:39;14.63;;;13.02;;
24090;SDS011;12272;52.426;17.100;2022-08-18T11:37:00;14.05;;;11.93;;
24090;SDS011;12272;52.426;17.100;2022-08-18T11:42:09;13.85;;;12.45;;
24090;SDS011;12272;52.426;17.100;2022-08-18T11:47:36;17.73;;;13.50;;
24090;SDS011;12272;52.426;17.100;2022-08-18T11:52:48;16.95;;;12.23;;
24090;SDS011;12272;52.426;17.100;2022-08-18T11:57:55;13.80;;;11.93;;
24090;SDS011;12272;52.426;17.100;2022-08-18T12:03:04;19.33;;;13.00;;
24090;SDS011;12272;52.426;17.100;2022-08-18T12:08:17;14.63;;;13.23;;
24090;SDS011;12272;52.426;17.100;2022-08-18T12:13:43;13.57;;;12.13;;
24090;SDS011;12272;52.426;17.100;2022-08-18T12:18:51;15.80;;;12.80;;
24090;SDS011;12272;52.426;17.100;2022-08-18T12:23:54;14.90;;;13.40;;
24090;SDS011;12272;52.426;17.100;2022-08-18T12:28:57;14.63;;;13.07;;
24090;SDS011;12272;52.426;17.100;2022-08-18T12:34:20;14.77;;;13.23;;
24090;SDS011;12272;52.426;17.100;2022-08-18T12:39:28;14.13;;;12.70;;
24090;SDS011;12272;52.426;17.100;2022-08-18T12:44:32;15.63;;;13.27;;
24090;SDS011;12272;52.426;17.100;2022-08-18T12:49:35;15.48;;;13.90;;
24090;SDS011;12272;52.426;17.100;2022-08-18T12:54:38;14.18;;;12.88;;
24090;SDS011;12272;52.426;17.100;2022-08-18T12:59:56;14.63;;;12.48;;
24090;SDS011;12272;52.426;17.100;2022-08-18T13:04:59;15.98;;;12.95;;
24090;SDS011;12272;52.426;17.100;2022-08-18T13:10:03;14.05;;;11.48;;
24090;SDS011;12272;52.426;17.100;2022-08-18T13:15:06;29.50;;;12.07;;
24090;SDS011;12272;52.426;17.100;2022-08-18T13:20:12;15.93;;;11.68;;
24090;SDS011;12272;52.426;17.100;2022-08-18T13:25:18;13.50;;;12.13;;
24090;SDS011;12272;52.426;17.100;2022-08-18T13:30:33;13.95;;;12.52;;
24090;SDS011;12272;52.426;17.100;2022-08-18T13:35:36;13.50;;;10.25;;
24090;SDS011;12272;52.426;17.100;2022-08-18T13:40:45;12.98;;;11.82;;
24090;SDS011;12272;52.426;17.100;2022-08-18T13:45:49;15.80;;;11.07;;
24090;SDS011;12272;52.426;17.100;2022-08-18T13:50:55;12.10;;;10.85;;
24090;SDS011;12272;52.426;17.100;2022-08-18T13:56:01;13.20;;;10.55;;
24090;SDS011;12272;52.426;17.100;2022-08-18T14:01:06;17.42;;;11.45;;
24090;SDS011;12272;52.426;17.100;2022-08-18T14:06:29;14.40;;;13.00;;
24090;SDS011;12272;52.426;17.100;2022-08-18T14:11:35;12.32;;;11.10;;
24090;SDS011;12272;52.426;17.100;2022-08-18T14:16:42;13.85;;;12.55;;
24090;SDS011;12272;52.426;17.100;2022-08-18T14:21:48;12.30;;;11.20;;
24090;SDS011;12272;52.426;17.100;2022-08-18T14:27:12;13.07;;;11.88;;
24090;SDS011;12272;52.426;17.100;2022-08-18T14:32:17;12.52;;;10.32;;
24090;SDS011;12272;52.426;17.100;2022-08-18T14:37:30;20.45;;;11.05;;
24090;SDS011;12272;52.426;17.100;2022-08-18T14:42:34;12.07;;;10.98;;
24090;SDS011;12272;52.426;17.100;2022-08-18T14:47:55;13.68;;;12.27;;
24090;SDS011;12272;52.426;17.100;2022-08-18T14:52:58;12.43;;;11.25;;
24090;SDS011;12272;52.426;17.100;2022-08-18T14:58:02;13.70;;;12.40;;
24090;SDS011;12272;52.426;17.100;2022-08-18T15:03:08;13.30;;;12.02;;
24090;SDS011;12272;52.426;17.100;2022-08-18T15:08:10;12.80;;;11.57;;
24090;SDS011;12272;52.426;17.100;2022-08-18T15:13:13;12.18;;;10.95;;
24090;SDS011;12272;52.426;17.100;2022-08-18T15:18:18;12.25;;;11.13;;
24090;SDS011;12272;52.426;17.100;2022-08-18T15:23:24;12.20;;;11.05;;
24090;SDS011;12272;52.426;17.100;2022-08-18T15:28:47;12.52;;;11.35;;
24090;SDS011;12272;52.426;17.100;2022-08-18T15:33:51;14.80;;;10.90;;
24090;SDS011;12272;52.426;17.100;2022-08-18T15:38:58;13.85;;;11.68;;
24090;SDS011;12272;52.426;17.100;2022-08-18T15:44:02;13.48;;;11.65;;
24090;SDS011;12272;52.426;17.100;2022-08-18T15:49:09;12.23;;;11.13;;
24090;SDS011;12272;52.426;17.100;2022-08-18T15:54:16;12.07;;;10.23;;
24090;SDS011;12272;52.426;17.100;2022-08-18T15:59:21;12.93;;;11.57;;
24090;SDS011;12272;52.426;17.100;2022-08-18T16:04:33;12.35;;;10.50;;
24090;SDS011;12272;52.426;17.100;2022-08-18T16:09:40;11.73;;;10.57;;
24090;SDS011;12272;52.426;17.100;2022-08-18T16:14:43;12.32;;;9.52;;
24090;SDS011;12272;52.426;17.100;2022-08-18T16:19:45;13.23;;;11.90;;
24090;SDS011;12272;52.426;17.100;2022-08-18T16:24:50;12.65;;;11.35;;
24090;SDS011;12272;52.426;17.100;2022-08-18T16:29:56;12.13;;;11.02;;
24090;SDS011;12272;52.426;17.100;2022-08-18T16:34:58;14.02;;;11.27;;
24090;SDS011;12272;52.426;17.100;2022-08-18T16:40:01;12.50;;;11.40;;
24090;SDS011;12272;52.426;17.100;2022-08-18T16:45:04;12.45;;;9.65;;
24090;SDS011;12272;52.426;17.100;2022-08-18T16:50:08;12.95;;;11.68;;
24090;SDS011;12272;52.426;17.100;2022-08-18T16:55:11;15.93;;;13.48;;
24090;SDS011;12272;52.426;17.100;2022-08-18T17:00:14;15.25;;;13.65;;
24090;SDS011;12272;52.426;17.100;2022-08-18T17:05:36;16.40;;;14.63;;
24090;SDS011;12272;52.426;17.100;2022-08-18T17:10:38;12.23;;;10.77;;
24090;SDS011;12272;52.426;17.100;2022-08-18T17:15:45;17.60;;;15.75;;
24090;SDS011;12272;52.426;17.100;2022-08-18T17:20:51;16.98;;;14.93;;
24090;SDS011;12272;52.426;17.100;2022-08-18T17:25:56;17.48;;;15.68;;
24090;SDS011;12272;52.426;17.100;2022-08-18T17:31:04;19.65;;;16.45;;
24090;SDS011;12272;52.426;17.100;2022-08-18T17:36:07;21.35;;;14.73;;
24090;SDS011;12272;52.426;17.100;2022-08-18T17:41:17;17.38;;;14.80;;
24090;SDS011;12272;52.426;17.100;2022-08-18T17:51:29;18.92;;;16.10;;
24090;SDS011;12272;52.426;17.100;2022-08-18T17:56:47;18.77;;;16.88;;
24090;SDS011;12272;52.426;17.100;2022-08-18T18:07:37;22.45;;;15.18;;
24090;SDS011;12272;52.426;17.100;2022-08-18T18:13:04;19.65;;;16.23;;
24090;SDS011;12272;52.426;17.100;2022-08-18T18:23:32;18.88;;;16.65;;
24090;SDS011;12272;52.426;17.100;2022-08-18T18:28:39;18.42;;;16.58;;
24090;SDS011;12272;52.426;17.100;2022-08-18T18:33:41;20.33;;;17.67;;
24090;SDS011;12272;52.426;17.100;2022-08-18T18:38:44;24.98;;;16.58;;
24090;SDS011;12272;52.426;17.100;2022-08-18T18:43:49;18.77;;;16.13;;
24090;SDS011;12272;52.426;17.100;2022-08-18T18:49:17;17.35;;;15.63;;
24090;SDS011;12272;52.426;17.100;2022-08-18T19:05:33;15.73;;;14.15;;
24090;SDS011;12272;52.426;17.100;2022-08-18T19:15:40;18.05;;;15.75;;
24090;SDS011;12272;52.426;17.100;2022-08-18T19:20:46;18.50;;;15.93;;
24090;SDS011;12272;52.426;17.100;2022-08-18T19:26:21;17.05;;;15.25;;
24090;SDS011;12272;52.426;17.100;2022-08-18T19:31:29;18.58;;;12.48;;
24090;SDS011;12272;52.426;17.100;2022-08-18T19:36:43;18.52;;;13.70;;
24090;SDS011;12272;52.426;17.100;2022-08-18T19:42:00;22.27;;;13.93;;
24090;SDS011;12272;52.426;17.100;2022-08-18T19:57:54;16.65;;;13.32;;
24090;SDS011;12272;52.426;17.100;2022-08-18T20:08:31;15.23;;;13.77;;
24090;SDS011;12272;52.426;17.100;2022-08-18T20:13:38;15.95;;;13.85;;
24090;SDS011;12272;52.426;17.100;2022-08-18T20:18:49;15.55;;;13.48;;
24090;SDS011;12272;52.426;17.100;2022-08-18T20:29:00;21.50;;;15.05;;
24090;SDS011;12272;52.426;17.100;2022-08-18T20:34:07;16.75;;;13.50;;
24090;SDS011;12272;52.426;17.100;2022-08-18T21:01:33;15.05;;;13.55;;
24090;SDS011;12272;52.426;17.100;2022-08-18T21:06:38;16.55;;;11.40;;
24090;SDS011;12272;52.426;17.100;2022-08-18T21:19:08;13.88;;;12.50;;
24090;SDS011;12272;52.426;17.100;2022-08-18T21:24:34;14.57;;;13.10;;
24090;SDS011;12272;52.426;17.100;2022-08-18T21:29:51;14.90;;;13.40;;
24090;SDS011;12272;52.426;17.100;2022-08-18T21:35:01;14.43;;;12.95;;
24090;SDS011;12272;52.426;17.100;2022-08-18T21:40:27;15.00;;;13.50;;
24090;SDS011;12272;52.426;17.100;2022-08-18T21:45:48;13.75;;;12.45;;
24090;SDS011;12272;52.426;17.100;2022-08-18T21:50:59;15.27;;;12.73;;
24090;SDS011;12272;52.426;17.100;2022-08-18T21:56:03;15.30;;;13.73;;
24090;SDS011;12272;52.426;17.100;2022-08-18T22:01:15;13.82;;;12.52;;
24090;SDS011;12272;52.426;17.100;2022-08-18T22:06:28;14.02;;;12.63;;
24090;SDS011;12272;52.426;17.100;2022-08-18T22:11:34;14.23;;;12.82;;
24090;SDS011;12272;52.426;17.100;2022-08-18T22:22:44;13.32;;;12.02;;
24090;SDS011;12272;52.426;17.100;2022-08-18T22:28:06;14.18;;;12.73;;
24090;SDS011;12272;52.426;17.100;2022-08-18T22:33:08;13.95;;;12.65;;
24090;SDS011;12272;52.426;17.100;2022-08-18T22:38:11;13.82;;;12.52;;
24090;SDS011;12272;52.426;17.100;2022-08-18T22:43:13;14.23;;;12.82;;
24090;SDS011;12272;52.426;17.100;2022-08-18T22:48:17;13.13;;;11.82;;
24090;SDS011;12272;52.426;17.100;2022-08-18T22:53:20;13.85;;;12.65;;
24090;SDS011;12272;52.426;17.100;2022-08-18T22:58:22;14.73;;;13.23;;
24090;SDS011;12272;52.426;17.100;2022-08-18T23:03:29;14.02;;;12.57;;
24090;SDS011;12272;52.426;17.100;2022-08-18T23:08:32;13.48;;;12.07;;
24090;SDS011;12272;52.426;17.100;2022-08-18T23:13:56;13.48;;;12.15;;
24090;SDS011;12272;52.426;17.100;2022-08-18T23:19:00;13.73;;;12.43;;
24090;SDS011;12272;52.426;17.100;2022-08-18T23:24:03;13.48;;;12.18;;
24090;SDS011;12272;52.426;17.100;2022-08-18T23:29:07;13.65;;;12.40;;
24090;SDS011;12272;52.426;17.100;2022-08-18T23:34:12;13.68;;;12.38;;
24090;SDS011;12272;52.426;17.100;2022-08-18T23:39:18;13.45;;;12.25;;
24090;SDS011;12272;52.426;17.100;2022-08-18T23:44:21;12.98;;;11.77;;
24090;SDS011;12272;52.426;17.100;2022-08-18T23:49:29;14.50;;;13.10;;
24090;SDS011;12272;52.426;17.100;2022-08-18T23:54:33;13.77;;;12.45;;
24090;SDS011;12272;52.426;17.100;2022-08-18T23:59:36;12.85;;;11.65;;
